Time;durP1;ratioP1;P1;durP2;ratioP2;P2;SDS_P1;SDS_P2;PMS_P1;PMS_P2;Temp;Humidity;BMP_temperature;BMP_pressure;BME280_temperature;BME280_humidity;BME280_pressure;Samples;Min_cycle;Max_cycle;Signal;HPM_P1;HPM_P2
2022/03/31 00:02:13;;;;;;;27.48;17.73;;;;;;;;;;4945243;29;20196;-82
2022/03/31 00:04:39;;;;;;;26.35;17.33;;;;;;;;;;4944049;29;20219;-81
2022/03/31 00:07:05;;;;;;;28.38;17.92;;;;;;;;;;4945552;29;20260;-83
2022/03/31 00:09:31;;;;;;;23.45;15.98;;;;;;;;;;4943967;29;20196;-81
2022/03/31 00:12:00;;;;;;;29.52;17.50;;;;;;;;;;4960092;28;20722;-81
2022/03/31 00:14:26;;;;;;;28.23;16.45;;;;;;;;;;4954409;29;20219;-82
2022/03/31 00:16:53;;;;;;;29.15;17.73;;;;;;;;;;4944810;29;20216;-80
2022/03/31 00:19:19;;;;;;;27.48;17.42;;;;;;;;;;4945864;29;20212;-81
2022/03/31 00:21:45;;;;;;;27.08;18.00;;;;;;;;;;4946456;29;20175;-82
2022/03/31 00:24:11;;;;;;;24.52;16.13;;;;;;;;;;4948783;29;20181;-81
2022/03/31 00:26:37;;;;;;;27.67;17.37;;;;;;;;;;4959650;29;20185;-80
2022/03/31 00:29:05;;;;;;;27.55;17.42;;;;;;;;;;4945016;29;20441;-81
2022/03/31 00:31:31;;;;;;;23.83;16.80;;;;;;;;;;4945226;29;20177;-80
2022/03/31 00:33:57;;;;;;;27.00;16.95;;;;;;;;;;4959849;29;20173;-80
2022/03/31 00:36:23;;;;;;;22.10;15.75;;;;;;;;;;4946193;29;20177;-81
2022/03/31 00:41:37;;;;;;;31.73;19.30;;;;;;;;;;4944545;29;20499;-81
2022/03/31 00:44:04;;;;;;;25.42;17.00;;;;;;;;;;4944725;29;20371;-81
2022/03/31 00:46:30;;;;;;;26.95;16.77;;;;;;;;;;4944698;29;20185;-80
2022/03/31 00:48:56;;;;;;;30.00;18.38;;;;;;;;;;4947166;29;20201;-81
2022/03/31 00:51:22;;;;;;;26.70;18.58;;;;;;;;;;4949708;29;20177;-81
2022/03/31 00:53:48;;;;;;;26.35;18.73;;;;;;;;;;4948621;29;20540;-81
2022/03/31 00:56:16;;;;;;;23.60;17.33;;;;;;;;;;4957987;29;20197;-81
2022/03/31 00:58:43;;;;;;;28.95;17.83;;;;;;;;;;4948976;29;20184;-80
2022/03/31 01:01:09;;;;;;;29.98;17.95;;;;;;;;;;4948526;29;20212;-81
2022/03/31 01:03:36;;;;;;;30.98;17.63;;;;;;;;;;4947208;29;20185;-81
2022/03/31 01:06:02;;;;;;;26.13;16.52;;;;;;;;;;4948024;29;20236;-81
2022/03/31 01:08:28;;;;;;;25.15;16.30;;;;;;;;;;4949092;29;20185;-81
2022/03/31 01:10:54;;;;;;;28.25;16.90;;;;;;;;;;4948564;29;20181;-81
2022/03/31 01:13:20;;;;;;;24.70;16.50;;;;;;;;;;4962197;29;20181;-81
2022/03/31 01:15:46;;;;;;;28.20;16.60;;;;;;;;;;4949894;29;20200;-80
2022/03/31 01:18:12;;;;;;;22.38;14.93;;;;;;;;;;4948328;29;20517;-80
2022/03/31 01:20:38;;;;;;;27.85;15.02;;;;;;;;;;4948209;29;20216;-80
2022/03/31 01:23:05;;;;;;;28.83;16.43;;;;;;;;;;4948045;29;20188;-80
2022/03/31 01:25:31;;;;;;;26.73;16.85;;;;;;;;;;4948332;29;20448;-80
2022/03/31 01:27:57;;;;;;;29.08;16.80;;;;;;;;;;4963134;29;20173;-80
2022/03/31 01:30:23;;;;;;;28.80;16.42;;;;;;;;;;4948394;29;20184;-80
2022/03/31 01:32:50;;;;;;;26.85;17.30;;;;;;;;;;4963020;28;20317;-81
2022/03/31 01:35:16;;;;;;;30.75;15.35;;;;;;;;;;4958395;29;20207;-81
2022/03/31 01:37:43;;;;;;;23.77;15.77;;;;;;;;;;4962835;28;20225;-82
2022/03/31 01:40:10;;;;;;;27.23;17.30;;;;;;;;;;4948135;29;20201;-81
2022/03/31 01:42:36;;;;;;;25.17;16.58;;;;;;;;;;4947321;29;20200;-80
2022/03/31 01:45:03;;;;;;;24.48;15.73;;;;;;;;;;4949055;29;20182;-80
2022/03/31 01:47:29;;;;;;;22.95;15.48;;;;;;;;;;4941514;29;20189;-80
2022/03/31 01:49:55;;;;;;;29.40;16.10;;;;;;;;;;4945544;29;20537;-80
2022/03/31 01:52:24;;;;;;;31.25;17.00;;;;;;;;;;4946233;29;20185;-80
2022/03/31 01:54:50;;;;;;;30.00;18.05;;;;;;;;;;4946643;29;20747;-81
2022/03/31 01:57:16;;;;;;;25.70;16.52;;;;;;;;;;4947786;29;20189;-81
2022/03/31 01:59:42;;;;;;;28.67;18.50;;;;;;;;;;4947648;29;20204;-82
2022/03/31 02:02:09;;;;;;;34.33;16.55;;;;;;;;;;4947405;29;20236;-81
2022/03/31 02:04:36;;;;;;;31.13;18.00;;;;;;;;;;4947027;29;20228;-80
2022/03/31 02:07:02;;;;;;;31.05;17.95;;;;;;;;;;4948159;29;20165;-80
2022/03/31 02:09:29;;;;;;;27.83;17.30;;;;;;;;;;4947710;29;20185;-81
2022/03/31 02:11:57;;;;;;;26.67;16.65;;;;;;;;;;4961827;28;20622;-81
2022/03/31 02:14:23;;;;;;;28.63;17.40;;;;;;;;;;4956912;29;20193;-80
2022/03/31 02:16:50;;;;;;;29.25;17.02;;;;;;;;;;4947903;29;20189;-80
2022/03/31 02:19:16;;;;;;;27.73;17.48;;;;;;;;;;4962461;28;20456;-81
2022/03/31 02:21:43;;;;;;;27.17;18.50;;;;;;;;;;4948016;29;20201;-81
2022/03/31 02:24:09;;;;;;;29.10;17.88;;;;;;;;;;4947606;29;20232;-80
2022/03/31 02:26:36;;;;;;;29.58;17.50;;;;;;;;;;4945843;29;20182;-81
2022/03/31 02:29:03;;;;;;;30.45;17.38;;;;;;;;;;4948304;29;20324;-81
2022/03/31 02:31:29;;;;;;;30.88;17.38;;;;;;;;;;4961572;28;20239;-81
2022/03/31 02:33:56;;;;;;;26.50;18.42;;;;;;;;;;4946824;29;20173;-81
2022/03/31 02:36:22;;;;;;;28.10;17.88;;;;;;;;;;4962599;29;20173;-81
2022/03/31 02:38:48;;;;;;;24.02;15.68;;;;;;;;;;4947088;29;20231;-81
2022/03/31 02:41:14;;;;;;;32.10;19.85;;;;;;;;;;4946446;29;20217;-81
2022/03/31 02:43:40;;;;;;;29.88;17.27;;;;;;;;;;4958090;29;20204;-81
2022/03/31 02:46:06;;;;;;;28.90;17.65;;;;;;;;;;4961645;29;20173;-80
2022/03/31 02:48:32;;;;;;;27.98;18.83;;;;;;;;;;4946060;29;20259;-80
2022/03/31 02:50:58;;;;;;;35.50;19.50;;;;;;;;;;4946949;29;20181;-80
2022/03/31 02:56:09;;;;;;;27.05;17.75;;;;;;;;;;4938128;29;20196;-80
2022/03/31 02:58:35;;;;;;;28.45;18.17;;;;;;;;;;4958942;29;20188;-80
2022/03/31 03:01:01;;;;;;;35.78;20.50;;;;;;;;;;4947121;29;20201;-81
2022/03/31 03:03:28;;;;;;;31.85;19.00;;;;;;;;;;4945353;29;20173;-80
2022/03/31 03:05:54;;;;;;;33.10;17.63;;;;;;;;;;4944540;29;20664;-81
2022/03/31 03:08:20;;;;;;;28.40;16.67;;;;;;;;;;4956473;29;20624;-81
2022/03/31 03:10:47;;;;;;;31.13;18.27;;;;;;;;;;4945567;29;20189;-81
2022/03/31 03:13:17;;;;;;;32.70;17.90;;;;;;;;;;4961633;29;20189;-80
2022/03/31 03:15:43;;;;;;;28.05;17.00;;;;;;;;;;4943347;29;20200;-81
2022/03/31 03:18:10;;;;;;;29.08;18.95;;;;;;;;;;4946300;28;20201;-80
2022/03/31 03:20:36;;;;;;;33.67;18.42;;;;;;;;;;4945967;29;20323;-80
2022/03/31 03:23:01;;;;;;;31.33;18.55;;;;;;;;;;4956603;29;20181;-80
2022/03/31 03:25:28;;;;;;;36.13;20.63;;;;;;;;;;4946014;29;20215;-81
2022/03/31 03:27:54;;;;;;;32.28;19.25;;;;;;;;;;4961716;29;20177;-80
2022/03/31 03:30:20;;;;;;;28.15;18.35;;;;;;;;;;4946776;28;20189;-81
2022/03/31 03:32:46;;;;;;;29.17;18.30;;;;;;;;;;4945918;29;20200;-81
2022/03/31 03:35:13;;;;;;;29.02;19.25;;;;;;;;;;4945070;29;20193;-81
2022/03/31 03:37:40;;;;;;;34.25;19.23;;;;;;;;;;4945562;29;20189;-81
2022/03/31 03:40:08;;;;;;;32.97;18.95;;;;;;;;;;4945928;29;20201;-80
2022/03/31 03:42:34;;;;;;;29.30;18.33;;;;;;;;;;4945216;29;20174;-80
2022/03/31 03:45:02;;;;;;;30.48;18.33;;;;;;;;;;4945720;29;20211;-80
2022/03/31 03:47:28;;;;;;;38.45;21.02;;;;;;;;;;4955134;28;20192;-81
2022/03/31 03:49:54;;;;;;;28.10;18.63;;;;;;;;;;4945238;29;20257;-81
2022/03/31 03:52:20;;;;;;;35.70;16.52;;;;;;;;;;4959788;29;20189;-81
2022/03/31 03:54:46;;;;;;;31.50;18.60;;;;;;;;;;4946632;29;20184;-81
2022/03/31 03:57:12;;;;;;;26.77;18.50;;;;;;;;;;4949118;29;20436;-81
2022/03/31 03:59:39;;;;;;;34.95;19.05;;;;;;;;;;4959976;28;20236;-81
2022/03/31 04:02:05;;;;;;;34.55;19.00;;;;;;;;;;4955821;29;20267;-80
2022/03/31 04:04:31;;;;;;;36.70;22.07;;;;;;;;;;4959229;29;20264;-81
2022/03/31 04:06:57;;;;;;;33.53;19.38;;;;;;;;;;4960339;29;20422;-80
2022/03/31 04:09:23;;;;;;;34.10;20.55;;;;;;;;;;4945094;29;20184;-81
2022/03/31 04:11:49;;;;;;;33.70;19.63;;;;;;;;;;4952153;29;20268;-80
2022/03/31 04:14:17;;;;;;;34.33;21.00;;;;;;;;;;4957166;29;20627;-81
2022/03/31 04:16:43;;;;;;;38.50;20.70;;;;;;;;;;4945976;29;20181;-81
2022/03/31 04:19:09;;;;;;;34.60;20.60;;;;;;;;;;4944727;28;20192;-80
2022/03/31 04:21:35;;;;;;;28.80;18.85;;;;;;;;;;4944512;29;20188;-81
2022/03/31 04:24:02;;;;;;;34.45;20.45;;;;;;;;;;4945028;29;20213;-80
2022/03/31 04:26:28;;;;;;;33.67;20.08;;;;;;;;;;4954623;29;20185;-80
2022/03/31 04:28:54;;;;;;;36.15;20.17;;;;;;;;;;4945465;29;20208;-81
2022/03/31 04:31:20;;;;;;;28.93;19.77;;;;;;;;;;4930705;29;20181;-80
2022/03/31 04:33:46;;;;;;;37.58;21.25;;;;;;;;;;4944605;29;20641;-80
2022/03/31 04:36:12;;;;;;;39.20;22.25;;;;;;;;;;4944796;29;20260;-80
2022/03/31 04:38:38;;;;;;;33.45;19.52;;;;;;;;;;4944766;29;20192;-80
2022/03/31 04:41:04;;;;;;;33.03;21.30;;;;;;;;;;4945126;29;20244;-80
2022/03/31 04:43:30;;;;;;;42.30;22.92;;;;;;;;;;4945443;29;20658;-81
2022/03/31 04:45:56;;;;;;;33.05;19.27;;;;;;;;;;4945376;29;20177;-81
2022/03/31 04:48:22;;;;;;;41.45;21.67;;;;;;;;;;4944046;29;20238;-81
2022/03/31 04:50:48;;;;;;;37.80;21.50;;;;;;;;;;4951597;28;20200;-80
2022/03/31 04:53:14;;;;;;;40.13;22.25;;;;;;;;;;4959195;29;20264;-80
2022/03/31 04:55:40;;;;;;;38.65;22.92;;;;;;;;;;4944906;29;20252;-81
2022/03/31 04:58:06;;;;;;;40.92;22.83;;;;;;;;;;4945560;29;20188;-81
2022/03/31 05:00:32;;;;;;;41.55;21.77;;;;;;;;;;4944595;29;20209;-80
2022/03/31 05:02:59;;;;;;;40.28;22.08;;;;;;;;;;4944053;29;20193;-81
2022/03/31 05:05:25;;;;;;;42.33;24.80;;;;;;;;;;4944293;29;20212;-80
2022/03/31 05:07:51;;;;;;;36.75;21.77;;;;;;;;;;4955858;29;20193;-80
2022/03/31 05:10:17;;;;;;;35.65;22.75;;;;;;;;;;4943985;29;20216;-80
2022/03/31 05:12:43;;;;;;;37.95;21.77;;;;;;;;;;4946201;29;20178;-80
2022/03/31 05:15:11;;;;;;;38.15;23.42;;;;;;;;;;4944966;29;20290;-81
2022/03/31 05:17:38;;;;;;;37.55;21.05;;;;;;;;;;4944633;29;20337;-80
2022/03/31 05:20:05;;;;;;;36.80;21.35;;;;;;;;;;4955012;28;20217;-80
2022/03/31 05:22:33;;;;;;;37.65;20.13;;;;;;;;;;4944462;29;20192;-80
2022/03/31 05:24:59;;;;;;;30.85;21.27;;;;;;;;;;4959342;29;20169;-80
2022/03/31 05:27:25;;;;;;;40.45;22.55;;;;;;;;;;4944596;29;20181;-81
2022/03/31 05:29:51;;;;;;;34.17;21.85;;;;;;;;;;4944543;29;20290;-80
2022/03/31 05:32:17;;;;;;;34.83;21.50;;;;;;;;;;4959365;28;20201;-80
2022/03/31 05:34:44;;;;;;;41.30;23.23;;;;;;;;;;4957133;28;20436;-80
2022/03/31 05:37:10;;;;;;;38.28;22.02;;;;;;;;;;4962574;29;20181;-81
2022/03/31 05:39:36;;;;;;;50.33;24.55;;;;;;;;;;4948914;29;20204;-81
2022/03/31 05:42:02;;;;;;;44.13;25.33;;;;;;;;;;4953091;29;20209;-80
2022/03/31 05:44:28;;;;;;;40.95;22.70;;;;;;;;;;4947797;29;20635;-80
2022/03/31 05:46:54;;;;;;;37.72;23.67;;;;;;;;;;4936534;28;20178;-80
2022/03/31 05:49:20;;;;;;;52.50;25.30;;;;;;;;;;4948636;29;20187;-80
2022/03/31 05:51:46;;;;;;;43.15;24.60;;;;;;;;;;4947091;29;20201;-80
2022/03/31 05:54:12;;;;;;;44.67;24.90;;;;;;;;;;4962433;28;20189;-80
2022/03/31 05:56:38;;;;;;;42.50;26.00;;;;;;;;;;4947397;29;20255;-80
2022/03/31 05:59:05;;;;;;;34.55;21.25;;;;;;;;;;4947844;29;20689;-80
2022/03/31 06:01:31;;;;;;;43.28;25.77;;;;;;;;;;4960206;29;20205;-81
2022/03/31 06:03:57;;;;;;;44.35;26.45;;;;;;;;;;4961880;28;20201;-80
2022/03/31 06:06:23;;;;;;;45.55;24.55;;;;;;;;;;4945898;29;20212;-80
2022/03/31 06:08:50;;;;;;;48.08;27.60;;;;;;;;;;4959348;29;20189;-80
2022/03/31 06:11:16;;;;;;;46.17;24.55;;;;;;;;;;4947944;29;20189;-81
2022/03/31 06:13:42;;;;;;;49.83;27.88;;;;;;;;;;4954952;29;20200;-82
2022/03/31 06:16:08;;;;;;;55.43;29.87;;;;;;;;;;4961678;28;20264;-83
2022/03/31 06:18:34;;;;;;;62.75;29.85;;;;;;;;;;4948008;28;20841;-82
2022/03/31 06:21:01;;;;;;;58.33;28.20;;;;;;;;;;4941887;29;20204;-84
2022/03/31 06:23:28;;;;;;;46.53;26.67;;;;;;;;;;4956594;29;20187;-84
2022/03/31 06:25:54;;;;;;;52.70;28.67;;;;;;;;;;4962050;28;20177;-83
2022/03/31 06:28:20;;;;;;;45.92;28.15;;;;;;;;;;4932564;29;20189;-84
2022/03/31 06:30:47;;;;;;;59.42;29.80;;;;;;;;;;4948066;29;20185;-81
2022/03/31 06:33:14;;;;;;;58.10;29.92;;;;;;;;;;4945987;29;20193;-81
2022/03/31 06:35:40;;;;;;;52.78;30.95;;;;;;;;;;4946158;29;20701;-82
2022/03/31 06:38:07;;;;;;;47.47;28.67;;;;;;;;;;4945478;29;20189;-82
2022/03/31 06:40:37;;;;;;;51.53;29.38;;;;;;;;;;4952290;29;20468;-82
2022/03/31 06:43:03;;;;;;;50.30;28.25;;;;;;;;;;4947219;29;20176;-81
2022/03/31 06:45:30;;;;;;;51.67;29.33;;;;;;;;;;4944360;29;20184;-82
2022/03/31 06:47:56;;;;;;;42.33;25.42;;;;;;;;;;4948188;28;20189;-82
2022/03/31 06:50:22;;;;;;;50.20;26.48;;;;;;;;;;4939514;29;20193;-82
2022/03/31 06:52:50;;;;;;;51.28;28.52;;;;;;;;;;4955069;28;20195;-81
2022/03/31 06:55:16;;;;;;;48.17;26.02;;;;;;;;;;4949744;29;20181;-81
2022/03/31 06:57:42;;;;;;;52.70;29.42;;;;;;;;;;4949175;29;20189;-82
2022/03/31 07:00:08;;;;;;;53.95;29.80;;;;;;;;;;4944678;29;20209;-82
2022/03/31 07:02:34;;;;;;;60.78;31.42;;;;;;;;;;4945621;29;20186;-82
2022/03/31 07:05:00;;;;;;;51.67;28.73;;;;;;;;;;4956655;29;20293;-82
2022/03/31 07:07:26;;;;;;;58.08;30.23;;;;;;;;;;4950600;28;20205;-80
2022/03/31 07:09:53;;;;;;;55.55;29.88;;;;;;;;;;4949049;29;20189;-80
2022/03/31 07:12:19;;;;;;;52.20;28.90;;;;;;;;;;4940385;29;20267;-81
2022/03/31 07:14:45;;;;;;;57.97;30.40;;;;;;;;;;4946321;29;20192;-80
2022/03/31 07:17:12;;;;;;;55.40;30.17;;;;;;;;;;4945681;29;20228;-81
2022/03/31 07:19:38;;;;;;;52.47;28.33;;;;;;;;;;4947250;29;20204;-81
2022/03/31 07:22:04;;;;;;;52.53;28.42;;;;;;;;;;4955331;29;20187;-80
2022/03/31 07:24:31;;;;;;;48.85;27.50;;;;;;;;;;4948412;29;20533;-79
2022/03/31 07:26:57;;;;;;;56.00;30.05;;;;;;;;;;4949152;29;20176;-80
2022/03/31 07:29:23;;;;;;;54.28;28.67;;;;;;;;;;4943912;29;20380;-80
2022/03/31 07:31:49;;;;;;;44.75;26.15;;;;;;;;;;4947095;29;20267;-80
2022/03/31 07:34:15;;;;;;;51.25;28.85;;;;;;;;;;4944838;29;20223;-80
2022/03/31 07:36:41;;;;;;;50.47;26.73;;;;;;;;;;4947408;29;20181;-80
2022/03/31 07:39:08;;;;;;;49.03;28.50;;;;;;;;;;4948793;29;20193;-80
2022/03/31 07:41:34;;;;;;;51.50;27.70;;;;;;;;;;4941627;29;20201;-80
2022/03/31 07:44:00;;;;;;;51.78;29.02;;;;;;;;;;4946526;29;20610;-79
2022/03/31 07:46:32;;;;;;;58.60;29.38;;;;;;;;;;4959325;28;20223;-81
2022/03/31 07:48:58;;;;;;;53.85;30.13;;;;;;;;;;4942951;29;20208;-79
2022/03/31 07:51:25;;;;;;;50.47;28.83;;;;;;;;;;4952139;29;20189;-78
2022/03/31 07:53:51;;;;;;;50.67;26.27;;;;;;;;;;4945334;29;20566;-78
2022/03/31 07:56:17;;;;;;;45.55;26.20;;;;;;;;;;4945255;29;20180;-77
2022/03/31 07:58:43;;;;;;;44.13;26.90;;;;;;;;;;4945324;29;20197;-79
2022/03/31 08:01:09;;;;;;;41.40;24.30;;;;;;;;;;4945272;29;20205;-79
2022/03/31 08:03:35;;;;;;;37.75;21.67;;;;;;;;;;4949878;28;20195;-78
2022/03/31 08:06:01;;;;;;;38.05;20.75;;;;;;;;;;4944982;28;20427;-80
2022/03/31 08:08:28;;;;;;;15.18;8.68;;;;;;;;;;4943608;29;20178;-78
2022/03/31 08:10:54;;;;;;;10.68;7.53;;;;;;;;;;4953116;29;20185;-80
2022/03/31 08:13:27;;;;;;;6.97;6.05;;;;;;;;;;4933311;29;20216;-77
2022/03/31 08:15:54;;;;;;;7.93;5.75;;;;;;;;;;4943890;29;20181;-76
2022/03/31 08:18:23;;;;;;;6.50;5.65;;;;;;;;;;4942817;29;20177;-77
2022/03/31 08:20:49;;;;;;;7.90;5.05;;;;;;;;;;4945302;29;20201;-76
2022/03/31 08:23:16;;;;;;;6.45;5.10;;;;;;;;;;4955700;29;20252;-75
2022/03/31 08:25:42;;;;;;;5.75;5.15;;;;;;;;;;4944295;29;20196;-78
2022/03/31 08:28:08;;;;;;;5.82;4.88;;;;;;;;;;4959528;29;20177;-79
2022/03/31 08:30:34;;;;;;;5.70;4.90;;;;;;;;;;4943776;29;20261;-76
2022/03/31 08:33:00;;;;;;;4.50;4.10;;;;;;;;;;4955926;28;20228;-77
2022/03/31 08:35:28;;;;;;;5.13;4.28;;;;;;;;;;4944818;29;20193;-76
2022/03/31 08:37:54;;;;;;;4.57;4.00;;;;;;;;;;4937891;29;20180;-76
2022/03/31 08:40:21;;;;;;;5.03;4.13;;;;;;;;;;4930158;29;20205;-76
2022/03/31 08:42:47;;;;;;;3.90;3.60;;;;;;;;;;4943979;29;20174;-78
2022/03/31 08:45:15;;;;;;;2.90;2.60;;;;;;;;;;4937459;29;20276;-76
2022/03/31 08:47:43;;;;;;;4.03;3.28;;;;;;;;;;4944663;29;20184;-76
2022/03/31 08:50:09;;;;;;;2.88;2.50;;;;;;;;;;4958185;28;20650;-76
2022/03/31 08:52:35;;;;;;;8.32;3.05;;;;;;;;;;4955073;29;20229;-76
2022/03/31 08:55:01;;;;;;;2.50;2.20;;;;;;;;;;4958422;29;20272;-76
2022/03/31 08:57:38;;;;;;;3.45;3.13;;;;;;;;;;4942019;29;20272;-76
2022/03/31 09:00:04;;;;;;;4.20;2.90;;;;;;;;;;4954620;28;20453;-76
2022/03/31 09:02:30;;;;;;;3.03;2.83;;;;;;;;;;4944933;29;20204;-76
2022/03/31 09:05:03;;;;;;;4.25;2.85;;;;;;;;;;4944468;29;20221;-76
2022/03/31 09:07:30;;;;;;;2.55;2.35;;;;;;;;;;4945649;29;20189;-76
2022/03/31 09:09:55;;;;;;;3.42;2.70;;;;;;;;;;4949515;28;20200;-78
2022/03/31 09:12:26;;;;;;;3.40;2.38;;;;;;;;;;4948882;29;20181;-78
2022/03/31 09:14:52;;;;;;;2.70;2.30;;;;;;;;;;4954277;29;20181;-79
2022/03/31 09:17:19;;;;;;;2.22;2.03;;;;;;;;;;4947810;29;20196;-80
2022/03/31 09:19:45;;;;;;;2.67;2.22;;;;;;;;;;4957148;28;20231;-80
2022/03/31 09:22:11;;;;;;;2.78;2.58;;;;;;;;;;4945385;28;20185;-78
2022/03/31 09:24:39;;;;;;;2.40;2.20;;;;;;;;;;4953263;29;20185;-79
2022/03/31 09:27:06;;;;;;;2.50;2.10;;;;;;;;;;4955832;28;20180;-78
2022/03/31 09:29:32;;;;;;;2.65;2.15;;;;;;;;;;4949815;29;20213;-76
2022/03/31 09:32:12;;;;;;;2.55;2.08;;;;;;;;;;4948118;29;20265;-79
2022/03/31 09:34:45;;;;;;;3.78;2.72;;;;;;;;;;4947529;29;20232;-78
2022/03/31 09:37:12;;;;;;;4.38;2.22;;;;;;;;;;4939807;29;20256;-77
2022/03/31 09:39:39;;;;;;;3.67;2.40;;;;;;;;;;4946410;29;20208;-78
2022/03/31 09:42:14;;;;;;;2.75;2.55;;;;;;;;;;4958270;29;20235;-78
2022/03/31 09:44:42;;;;;;;2.95;2.60;;;;;;;;;;4953232;29;20701;-78
2022/03/31 09:47:09;;;;;;;3.20;2.90;;;;;;;;;;4947649;29;20205;-78
2022/03/31 09:49:35;;;;;;;2.80;2.60;;;;;;;;;;4951140;29;20247;-78
2022/03/31 09:52:03;;;;;;;2.97;2.22;;;;;;;;;;4948002;29;20187;-77
2022/03/31 09:54:30;;;;;;;3.65;3.35;;;;;;;;;;4947133;29;20193;-77
2022/03/31 09:56:57;;;;;;;3.58;2.92;;;;;;;;;;4953452;29;20181;-78
2022/03/31 09:59:29;;;;;;;2.60;2.40;;;;;;;;;;4962604;28;20184;-77
2022/03/31 10:01:55;;;;;;;3.00;2.67;;;;;;;;;;4947818;29;20189;-79
2022/03/31 10:04:22;;;;;;;2.85;2.65;;;;;;;;;;4946354;29;20181;-78
2022/03/31 10:06:50;;;;;;;3.13;2.50;;;;;;;;;;4947045;29;20173;-77
2022/03/31 10:09:16;;;;;;;3.53;2.75;;;;;;;;;;4945907;29;20625;-79
2022/03/31 10:11:42;;;;;;;3.47;2.10;;;;;;;;;;4947406;29;20582;-79
2022/03/31 10:14:14;;;;;;;4.78;3.08;;;;;;;;;;4959098;28;20247;-79
2022/03/31 10:16:52;;;;;;;2.88;2.35;;;;;;;;;;4956033;29;20185;-80
2022/03/31 10:19:31;;;;;;;3.90;3.38;;;;;;;;;;4961909;28;20219;-75
2022/03/31 10:22:01;;;;;;;3.75;3.22;;;;;;;;;;4958910;29;20172;-76
2022/03/31 10:24:44;;;;;;;3.10;2.50;;;;;;;;;;4940268;29;20188;-76
2022/03/31 10:27:14;;;;;;;2.67;2.47;;;;;;;;;;4961615;28;20185;-75
2022/03/31 10:29:45;;;;;;;4.10;2.25;;;;;;;;;;4946991;29;20197;-75
2022/03/31 10:32:18;;;;;;;3.15;2.65;;;;;;;;;;4954727;29;20208;-75
2022/03/31 10:34:48;;;;;;;2.92;2.72;;;;;;;;;;4946988;29;20244;-75
2022/03/31 10:37:14;;;;;;;2.47;2.28;;;;;;;;;;4946981;29;20185;-75
2022/03/31 10:39:50;;;;;;;2.75;2.53;;;;;;;;;;4946741;29;20223;-76
2022/03/31 10:42:16;;;;;;;2.30;2.10;;;;;;;;;;4946255;29;20376;-75
2022/03/31 10:44:42;;;;;;;2.88;2.60;;;;;;;;;;4946674;29;20287;-75
2022/03/31 10:47:12;;;;;;;3.90;3.53;;;;;;;;;;4961355;29;20292;-75
2022/03/31 10:49:38;;;;;;;4.30;3.00;;;;;;;;;;4933497;29;20189;-75
2022/03/31 10:52:17;;;;;;;3.55;2.58;;;;;;;;;;4961589;29;20200;-76
2022/03/31 10:54:43;;;;;;;3.25;2.05;;;;;;;;;;4946377;29;20535;-77
2022/03/31 10:57:13;;;;;;;3.08;2.78;;;;;;;;;;4950573;29;20344;-75
2022/03/31 10:59:39;;;;;;;2.55;2.35;;;;;;;;;;4941632;29;20247;-75
2022/03/31 11:02:10;;;;;;;2.67;2.47;;;;;;;;;;4946305;29;20241;-76
2022/03/31 11:04:46;;;;;;;3.15;2.83;;;;;;;;;;4943632;29;20221;-76
2022/03/31 11:07:30;;;;;;;2.70;2.38;;;;;;;;;;4944656;29;20181;-77
2022/03/31 11:10:17;;;;;;;3.53;3.05;;;;;;;;;;4941825;29;20185;-77
2022/03/31 11:12:44;;;;;;;2.85;2.25;;;;;;;;;;4947156;29;20177;-76
2022/03/31 11:15:11;;;;;;;3.92;3.60;;;;;;;;;;4941274;29;20201;-76
2022/03/31 11:17:39;;;;;;;3.50;2.85;;;;;;;;;;4942096;28;20201;-76
2022/03/31 11:20:14;;;;;;;5.18;3.50;;;;;;;;;;4949107;29;20201;-75
2022/03/31 11:22:47;;;;;;;5.35;3.00;;;;;;;;;;4947126;29;20287;-76
2022/03/31 11:25:13;;;;;;;3.30;2.65;;;;;;;;;;4957445;29;20196;-77
2022/03/31 11:27:40;;;;;;;2.60;2.30;;;;;;;;;;4953322;29;20189;-78
2022/03/31 11:30:20;;;;;;;3.58;2.58;;;;;;;;;;4967254;28;20184;-75
2022/03/31 11:32:48;;;;;;;2.92;2.58;;;;;;;;;;4949271;28;20196;-76
2022/03/31 11:35:18;;;;;;;4.03;2.95;;;;;;;;;;4960355;28;20262;-76
2022/03/31 11:37:55;;;;;;;2.17;1.98;;;;;;;;;;4942345;29;20468;-77
2022/03/31 11:40:35;;;;;;;3.78;3.25;;;;;;;;;;4957968;28;20209;-76
2022/03/31 11:43:03;;;;;;;4.50;2.50;;;;;;;;;;4960524;29;20184;-77
2022/03/31 11:45:29;;;;;;;3.40;2.35;;;;;;;;;;4960278;28;20172;-76
2022/03/31 11:48:16;;;;;;;3.42;2.95;;;;;;;;;;4955170;28;20267;-77
2022/03/31 11:50:50;;;;;;;2.95;2.13;;;;;;;;;;4956801;28;20195;-77
2022/03/31 11:53:26;;;;;;;2.85;2.65;;;;;;;;;;4949567;28;20725;-76
2022/03/31 11:56:25;;;;;;;3.25;2.70;;;;;;;;;;4957875;29;20184;-79
2022/03/31 11:58:53;;;;;;;3.42;2.50;;;;;;;;;;4954630;29;20209;-78
2022/03/31 12:01:47;;;;;;;3.25;2.70;;;;;;;;;;4942992;29;20205;-76
2022/03/31 12:04:24;;;;;;;2.38;2.00;;;;;;;;;;4953656;28;20196;-77
2022/03/31 12:06:52;;;;;;;2.80;2.60;;;;;;;;;;4943583;29;20204;-78
2022/03/31 12:09:19;;;;;;;3.25;2.40;;;;;;;;;;4941936;29;20173;-78
2022/03/31 12:11:46;;;;;;;3.13;2.83;;;;;;;;;;4945001;29;20197;-80
2022/03/31 12:14:12;;;;;;;2.65;2.45;;;;;;;;;;4945725;29;20272;-77
2022/03/31 12:16:42;;;;;;;2.70;2.00;;;;;;;;;;4945421;29;20193;-79
2022/03/31 12:19:08;;;;;;;1.85;1.75;;;;;;;;;;4950089;28;20195;-79
2022/03/31 12:21:44;;;;;;;2.00;1.90;;;;;;;;;;4939836;29;20209;-79
2022/03/31 12:24:10;;;;;;;3.25;1.73;;;;;;;;;;4933559;29;20193;-80
2022/03/31 12:26:36;;;;;;;2.38;2.17;;;;;;;;;;4937526;29;20579;-77
2022/03/31 12:29:02;;;;;;;3.85;2.40;;;;;;;;;;4949427;29;20501;-79
2022/03/31 12:31:31;;;;;;;2.00;1.80;;;;;;;;;;4942977;29;20257;-79
2022/03/31 12:33:58;;;;;;;2.47;2.28;;;;;;;;;;4959178;28;20188;-76
2022/03/31 12:36:28;;;;;;;2.88;2.67;;;;;;;;;;4951478;29;20177;-78
2022/03/31 12:38:56;;;;;;;2.45;2.25;;;;;;;;;;4947495;29;20192;-79
2022/03/31 12:41:26;;;;;;;2.50;2.30;;;;;;;;;;4948347;29;20209;-79
2022/03/31 12:43:57;;;;;;;2.92;2.60;;;;;;;;;;4953874;28;20180;-79
2022/03/31 12:46:23;;;;;;;2.58;2.38;;;;;;;;;;4933640;29;20244;-79
2022/03/31 12:48:54;;;;;;;2.67;2.47;;;;;;;;;;4949008;29;20177;-80
2022/03/31 12:51:21;;;;;;;3.33;2.80;;;;;;;;;;4963684;28;20185;-79
2022/03/31 12:53:47;;;;;;;2.95;2.75;;;;;;;;;;4958976;29;20191;-79
2022/03/31 12:56:21;;;;;;;3.08;2.83;;;;;;;;;;4943549;28;20185;-79
2022/03/31 12:58:47;;;;;;;2.40;2.20;;;;;;;;;;4948095;29;20291;-79
2022/03/31 13:01:13;;;;;;;3.60;3.25;;;;;;;;;;4946635;29;20201;-79
2022/03/31 13:03:39;;;;;;;2.70;2.50;;;;;;;;;;4948520;29;20181;-78
2022/03/31 13:06:05;;;;;;;2.90;2.60;;;;;;;;;;4956329;29;20341;-80
2022/03/31 13:08:31;;;;;;;3.88;2.88;;;;;;;;;;4952567;28;20181;-80
2022/03/31 13:10:58;;;;;;;3.17;2.88;;;;;;;;;;4946052;29;20754;-81
2022/03/31 13:13:25;;;;;;;3.63;3.25;;;;;;;;;;4948267;29;20181;-80
2022/03/31 13:15:51;;;;;;;3.20;2.95;;;;;;;;;;4943389;29;20188;-80
2022/03/31 13:18:17;;;;;;;9.45;4.07;;;;;;;;;;4961994;28;20193;-81
2022/03/31 13:20:43;;;;;;;2.67;2.47;;;;;;;;;;4955672;28;20209;-82
2022/03/31 13:23:09;;;;;;;2.42;2.22;;;;;;;;;;4962470;28;20439;-80
2022/03/31 13:25:35;;;;;;;2.90;2.70;;;;;;;;;;4961115;29;20234;-81
2022/03/31 13:28:01;;;;;;;2.40;2.20;;;;;;;;;;4962729;29;20637;-83
2022/03/31 13:30:27;;;;;;;2.40;2.30;;;;;;;;;;4948069;29;20424;-79
2022/03/31 13:32:53;;;;;;;1.97;1.80;;;;;;;;;;4951811;28;20444;-82
2022/03/31 13:35:19;;;;;;;2.30;2.20;;;;;;;;;;4957234;29;20451;-80
2022/03/31 13:37:48;;;;;;;2.00;1.90;;;;;;;;;;4957461;29;20448;-82
2022/03/31 13:40:14;;;;;;;2.00;1.80;;;;;;;;;;4946724;29;25189;-82
2022/03/31 13:42:41;;;;;;;3.20;2.00;;;;;;;;;;4949362;29;20395;-80
2022/03/31 13:45:11;;;;;;;2.00;1.80;;;;;;;;;;4946679;29;20441;-84
2022/03/31 13:47:38;;;;;;;1.70;1.60;;;;;;;;;;4953853;29;20506;-82
2022/03/31 13:50:04;;;;;;;1.83;1.73;;;;;;;;;;4946221;29;20181;-84
2022/03/31 13:52:30;;;;;;;2.15;1.90;;;;;;;;;;4946426;29;20324;-85
2022/03/31 13:54:56;;;;;;;3.08;1.50;;;;;;;;;;4947796;29;20183;-80
2022/03/31 14:02:52;;;;;;;2.85;2.47;;;;;;;;;;4946697;29;20248;-78
2022/03/31 14:05:18;;;;;;;2.50;2.30;;;;;;;;;;4957726;29;20244;-78
2022/03/31 14:07:44;;;;;;;2.00;1.90;;;;;;;;;;4961689;29;20189;-79
2022/03/31 14:10:12;;;;;;;3.97;1.70;;;;;;;;;;4947390;29;20185;-79
2022/03/31 14:12:40;;;;;;;1.90;1.80;;;;;;;;;;4945482;29;20181;-81
2022/03/31 14:15:06;;;;;;;3.05;1.83;;;;;;;;;;4940432;29;20574;-80
2022/03/31 14:17:32;;;;;;;2.05;1.85;;;;;;;;;;4952041;29;20452;-81
2022/03/31 14:19:58;;;;;;;2.00;1.90;;;;;;;;;;4943245;29;20300;-80
2022/03/31 14:22:24;;;;;;;1.70;1.60;;;;;;;;;;4961074;28;20209;-80
2022/03/31 14:24:50;;;;;;;1.73;1.63;;;;;;;;;;4947973;29;20181;-81
2022/03/31 14:27:16;;;;;;;2.40;1.90;;;;;;;;;;4947430;29;20208;-81
2022/03/31 14:29:44;;;;;;;2.40;2.20;;;;;;;;;;4953993;29;20617;-81
2022/03/31 14:32:11;;;;;;;4.70;2.55;;;;;;;;;;4961498;28;20193;-80
2022/03/31 14:34:38;;;;;;;4.70;2.53;;;;;;;;;;4958962;28;20200;-81
2022/03/31 14:37:04;;;;;;;2.17;1.92;;;;;;;;;;4962461;29;20173;-83
2022/03/31 14:39:30;;;;;;;2.00;1.77;;;;;;;;;;4946370;29;20180;-82
2022/03/31 14:41:57;;;;;;;3.15;2.85;;;;;;;;;;4952706;29;20212;-81